createdAt,value
2023-05-10T00:00:32.375Z,65.60
2023-05-10T00:03:00.795Z,65.83
2023-05-10T00:05:29.234Z,65.98
2023-05-10T00:07:57.608Z,65.62
2023-05-10T00:10:25.982Z,65.42
2023-05-10T00:12:54.310Z,65.25
2023-05-10T00:15:24.111Z,65.90
2023-05-10T00:17:52.429Z,66.17
2023-05-10T00:20:20.816Z,66.25
2023-05-10T00:22:49.128Z,67.27
2023-05-10T00:25:17.696Z,66.97
2023-05-10T00:27:45.921Z,67.15
2023-05-10T00:30:14.687Z,67.49
2023-05-10T00:32:44.927Z,67.82
2023-05-10T00:35:13.265Z,67.93
2023-05-10T00:37:41.530Z,68.37
2023-05-10T00:40:10.310Z,68.27
2023-05-10T00:42:38.539Z,68.89
2023-05-10T00:45:09.733Z,69.24
2023-05-10T00:47:38.155Z,70.42
2023-05-10T00:50:10.122Z,71.54
2023-05-10T00:52:38.616Z,72.98
2023-05-10T00:55:08.283Z,72.96
2023-05-10T00:57:36.669Z,72.36
2023-05-10T01:00:06.140Z,72.16
2023-05-10T01:02:36.545Z,72.34
2023-05-10T01:05:07.487Z,71.63
2023-05-10T01:07:35.810Z,71.53
2023-05-10T01:10:05.773Z,70.75
2023-05-10T01:12:34.425Z,70.97
2023-05-10T01:15:03.322Z,69.85
2023-05-10T01:17:35.695Z,70.07
2023-05-10T01:20:04.204Z,68.78
2023-05-10T01:22:58.958Z,68.63
2023-05-10T01:25:45.702Z,68.65
2023-05-10T01:28:55.821Z,68.95
2023-05-10T01:31:45.016Z,68.37
2023-05-10T01:34:19.261Z,68.98
2023-05-10T01:36:53.340Z,69.64
2023-05-10T01:39:27.987Z,70.11
2023-05-10T01:42:04.523Z,70.57
2023-05-10T01:44:38.161Z,72.14
2023-05-10T01:47:12.069Z,73.04
2023-05-10T01:49:48.497Z,73.62
2023-05-10T01:52:20.808Z,74.41
2023-05-10T01:54:55.689Z,74.20
2023-05-10T01:57:27.921Z,75.33
2023-05-10T01:59:57.356Z,74.41
2023-05-10T02:02:27.942Z,74.64
2023-05-10T02:05:00.505Z,74.43
2023-05-10T02:07:30.795Z,73.32
2023-05-10T02:10:00.561Z,72.62
2023-05-10T02:12:31.085Z,72.12
2023-05-10T02:15:01.977Z,70.46
2023-05-10T02:17:34.630Z,69.92
2023-05-10T02:20:07.086Z,69.61
2023-05-10T02:22:36.147Z,69.44
2023-05-10T02:25:05.972Z,69.54
2023-05-10T02:27:35.865Z,69.69
2023-05-10T02:30:04.655Z,69.63
2023-05-10T02:32:36.517Z,69.46
2023-05-10T02:35:08.038Z,68.59
2023-05-10T02:37:39.142Z,68.80
2023-05-10T02:40:09.592Z,68.23
2023-05-10T02:42:40.250Z,66.76
2023-05-10T02:45:13.848Z,66.22
2023-05-10T02:47:44.839Z,64.72
2023-05-10T02:50:15.380Z,63.98
2023-05-10T02:52:48.795Z,62.47
2023-05-10T02:55:18.428Z,61.71
2023-05-10T02:57:53.316Z,60.89
2023-05-10T03:00:22.018Z,62.02
2023-05-10T03:02:50.271Z,63.04
2023-05-10T03:05:20.231Z,63.58
2023-05-10T03:07:49.540Z,63.96
2023-05-10T03:10:18.084Z,64.22
2023-05-10T03:13:04.027Z,64.57
2023-05-10T03:15:40.316Z,64.56
2023-05-10T03:18:12.282Z,64.04
2023-05-10T03:20:45.899Z,63.73
2023-05-10T03:23:21.657Z,63.18
2023-05-10T03:25:52.431Z,62.54
2023-05-10T03:28:22.681Z,62.17
2023-05-10T03:30:52.133Z,62.51
2023-05-10T03:33:20.532Z,62.20
2023-05-10T03:35:50.787Z,61.21
2023-05-10T03:38:19.091Z,59.86
2023-05-10T03:40:48.460Z,59.08
2023-05-10T03:43:16.918Z,58.69
2023-05-10T03:45:45.210Z,58.72
2023-05-10T03:48:14.797Z,58.14
2023-05-10T03:50:44.016Z,58.03
2023-05-10T03:53:14.493Z,57.59
2023-05-10T03:55:42.670Z,56.23
2023-05-10T03:58:13.472Z,56.08
2023-05-10T04:00:44.788Z,55.34
2023-05-10T04:03:14.051Z,55.34
2023-05-10T04:05:42.548Z,54.77
2023-05-10T04:08:11.201Z,54.20
2023-05-10T04:10:41.112Z,54.22
2023-05-10T04:13:09.432Z,53.77
2023-05-10T04:15:37.708Z,53.36
2023-05-10T04:18:08.705Z,53.75
2023-05-10T04:20:37.169Z,53.80
2023-05-10T04:23:05.557Z,53.13
2023-05-10T04:25:36.592Z,52.55
2023-05-10T04:28:06.482Z,51.95
2023-05-10T04:30:34.776Z,52.52
2023-05-10T04:33:03.589Z,51.09
2023-05-10T04:35:31.796Z,50.66
2023-05-10T04:38:00.140Z,50.64
2023-05-10T04:40:28.468Z,49.36
2023-05-10T04:42:56.850Z,49.76
2023-05-10T04:45:26.404Z,50.10
2023-05-10T04:47:54.706Z,49.21
2023-05-10T04:50:22.880Z,49.51
2023-05-10T04:52:52.682Z,49.41
2023-05-10T04:55:22.116Z,48.95
2023-05-10T04:57:50.345Z,49.33
2023-05-10T05:00:19.091Z,48.60
2023-05-10T05:02:48.940Z,48.78
2023-05-10T05:05:17.481Z,48.06
2023-05-10T05:07:45.709Z,47.31
2023-05-10T05:10:14.304Z,47.29
2023-05-10T05:12:42.676Z,47.33
2023-05-10T05:15:11.777Z,47.21
2023-05-10T05:17:40.082Z,45.46
2023-05-10T05:20:11.110Z,45.48
2023-05-10T05:22:39.414Z,44.46
2023-05-10T05:25:08.569Z,44.36
2023-05-10T05:27:36.890Z,43.81
2023-05-10T05:30:06.172Z,44.08
2023-05-10T05:32:34.551Z,43.75
2023-05-10T05:35:02.746Z,44.08
2023-05-10T05:37:33.679Z,42.99
2023-05-10T05:40:02.831Z,42.96
2023-05-10T05:42:33.591Z,42.90
2023-05-10T05:45:01.995Z,42.72
2023-05-10T05:47:34.099Z,43.24
2023-05-10T05:50:02.484Z,42.75
2023-05-10T05:52:34.226Z,42.97
2023-05-10T05:55:02.808Z,43.04
2023-05-10T05:57:32.873Z,42.59
2023-05-10T06:00:01.265Z,42.63
2023-05-10T06:02:30.777Z,42.47
2023-05-10T06:04:59.315Z,42.30
2023-05-10T06:07:27.716Z,41.82
2023-05-10T06:09:57.444Z,42.26
2023-05-10T06:12:25.660Z,41.99
2023-05-10T06:14:53.893Z,42.08
2023-05-10T06:17:22.793Z,41.58
2023-05-10T06:19:51.153Z,41.27
2023-05-10T06:22:19.470Z,40.98
2023-05-10T06:24:47.662Z,41.08
2023-05-10T06:27:17.488Z,40.57
2023-05-10T06:29:45.705Z,41.19
2023-05-10T06:32:14.073Z,41.18
2023-05-10T06:34:44.204Z,41.30
2023-05-10T06:37:12.467Z,41.22
2023-05-10T06:39:40.725Z,41.65
2023-05-10T06:42:09.192Z,40.76
2023-05-10T06:44:39.016Z,41.31
2023-05-10T06:47:07.470Z,41.79
2023-05-10T06:49:35.667Z,41.64
2023-05-10T06:52:03.927Z,41.54
2023-05-10T06:54:32.202Z,42.45
2023-05-10T06:57:01.845Z,42.64
2023-05-10T06:59:31.523Z,42.51
2023-05-10T07:02:01.493Z,43.03
2023-05-10T07:04:29.906Z,44.12
2023-05-10T07:06:58.760Z,43.89
2023-05-10T07:09:27.003Z,44.78
2023-05-10T07:11:55.162Z,44.86
2023-05-10T07:14:23.527Z,45.06
2023-05-10T07:16:51.708Z,45.07
2023-05-10T07:19:21.626Z,44.77
2023-05-10T07:21:49.850Z,44.55
2023-05-10T07:24:18.135Z,44.21
2023-05-10T07:26:46.249Z,43.53
2023-05-10T07:29:14.733Z,43.39
2023-05-10T07:31:43.860Z,43.78
2023-05-10T07:34:12.346Z,44.18
2023-05-10T07:36:42.040Z,43.78
2023-05-10T07:39:11.500Z,43.78
2023-05-10T07:41:40.924Z,43.41
2023-05-10T07:44:09.213Z,43.40
2023-05-10T07:46:37.502Z,43.41
2023-05-10T07:49:06.740Z,43.35
2023-05-10T07:51:34.967Z,43.04
2023-05-10T07:54:05.193Z,43.15
2023-05-10T07:56:34.598Z,42.10
2023-05-10T07:59:04.806Z,41.96
2023-05-10T08:01:34.213Z,42.46
2023-05-10T08:04:03.131Z,41.43
2023-05-10T08:06:43.241Z,42.08
2023-05-10T08:09:13.079Z,41.72
2023-05-10T08:11:41.344Z,41.04
2023-05-10T08:14:09.640Z,41.64
2023-05-10T08:16:37.925Z,41.00
2023-05-10T08:19:06.445Z,41.71
2023-05-10T08:21:34.859Z,40.93
2023-05-10T08:24:03.139Z,40.94
2023-05-10T08:26:33.165Z,41.18
2023-05-10T08:29:01.443Z,41.10
2023-05-10T08:31:29.854Z,41.32
2023-05-10T08:33:58.237Z,41.31
2023-05-10T08:36:26.618Z,40.45
2023-05-10T08:38:56.612Z,41.18
2023-05-10T08:41:27.244Z,41.25
2023-05-10T08:43:57.171Z,40.87
2023-05-10T08:46:25.708Z,40.36
2023-05-10T08:48:55.833Z,40.91
2023-05-10T08:51:28.829Z,40.84
2023-05-10T08:53:58.424Z,40.46
2023-05-10T08:56:26.830Z,40.68
2023-05-10T08:58:56.632Z,40.24
2023-05-10T09:01:25.281Z,40.84
2023-05-10T09:03:53.867Z,40.31
2023-05-10T09:06:22.836Z,40.56
2023-05-10T09:08:52.728Z,40.64
2023-05-10T09:11:22.757Z,40.68
2023-05-10T09:13:53.477Z,39.64
2023-05-10T09:16:23.744Z,39.60
2023-05-10T09:18:52.212Z,39.02
2023-05-10T09:21:22.157Z,39.57
2023-05-10T09:23:52.017Z,39.30
2023-05-10T09:26:24.780Z,39.47
2023-05-10T09:28:54.661Z,39.16
2023-05-10T09:31:26.113Z,38.80
2023-05-10T09:33:55.600Z,38.32
2023-05-10T09:36:23.818Z,37.81
2023-05-10T09:38:54.044Z,37.43
2023-05-10T09:41:24.093Z,37.52
2023-05-10T09:43:57.222Z,37.32
2023-05-10T09:46:27.176Z,37.36
2023-05-10T09:48:55.438Z,36.95
2023-05-10T09:51:24.609Z,36.90
2023-05-10T09:54:11.620Z,36.57
2023-05-10T09:56:41.700Z,36.68
2023-05-10T09:59:14.012Z,36.31
2023-05-10T10:01:43.818Z,35.92
2023-05-10T10:04:12.599Z,35.63
2023-05-10T10:06:41.804Z,35.74
2023-05-10T10:09:10.805Z,35.61
2023-05-10T10:11:42.444Z,35.71
2023-05-10T10:14:11.351Z,34.73
2023-05-10T10:16:45.945Z,34.52
2023-05-10T10:19:25.460Z,34.78
2023-05-10T10:21:53.701Z,34.83
2023-05-10T10:24:22.044Z,34.75
2023-05-10T10:26:54.528Z,33.58
2023-05-10T10:29:28.313Z,33.35
2023-05-10T10:32:05.646Z,33.97
2023-05-10T10:34:36.568Z,33.85
2023-05-10T10:37:07.652Z,32.61
2023-05-10T10:39:37.752Z,31.86
2023-05-10T10:42:06.690Z,31.12
2023-05-10T10:44:42.688Z,31.20
2023-05-10T10:47:30.821Z,30.80
2023-05-10T10:50:08.683Z,30.44
2023-05-10T10:52:38.123Z,30.34
2023-05-10T10:55:09.454Z,30.65
2023-05-10T10:57:52.859Z,30.36
2023-05-10T11:00:27.125Z,29.53
2023-05-10T11:02:58.544Z,29.41
2023-05-10T11:05:42.655Z,29.38
2023-05-10T11:08:17.230Z,29.66
2023-05-10T11:11:04.967Z,29.50
2023-05-10T11:13:35.912Z,28.09
2023-05-10T11:16:18.897Z,28.05
2023-05-10T11:19:00.776Z,27.64
2023-05-10T11:21:31.217Z,27.55
2023-05-10T11:24:00.732Z,27.46
2023-05-10T11:26:37.047Z,26.70
2023-05-10T11:29:06.109Z,26.41
2023-05-10T11:31:34.744Z,26.80
2023-05-10T11:34:03.822Z,27.80
2023-05-10T11:36:36.138Z,27.78
2023-05-10T11:39:05.775Z,28.07
2023-05-10T11:41:34.428Z,27.98
2023-05-10T11:44:03.840Z,27.61
2023-05-10T11:46:32.320Z,27.13
2023-05-10T11:49:05.312Z,27.17
2023-05-10T11:51:37.878Z,27.39
2023-05-10T11:54:09.368Z,27.52
2023-05-10T11:56:38.506Z,27.70
2023-05-10T11:59:06.815Z,27.05
2023-05-10T12:01:36.139Z,27.46
2023-05-10T12:04:05.246Z,27.85
2023-05-10T12:06:39.790Z,26.94
2023-05-10T12:09:09.828Z,27.89
2023-05-10T12:11:43.299Z,27.89
2023-05-10T12:14:12.652Z,27.03
2023-05-10T12:16:40.991Z,28.02
2023-05-10T12:19:09.418Z,28.18
2023-05-10T12:21:40.097Z,28.04
2023-05-10T12:24:09.521Z,28.60
2023-05-10T12:26:38.329Z,28.91
2023-05-10T12:29:17.891Z,29.04
2023-05-10T12:31:54.524Z,28.62
2023-05-10T12:34:27.545Z,28.74
2023-05-10T12:36:57.594Z,28.08
2023-05-10T12:39:26.222Z,28.47
2023-05-10T12:41:54.995Z,28.19
2023-05-10T12:44:23.232Z,27.07
2023-05-10T12:46:51.613Z,27.81
2023-05-10T12:49:20.689Z,26.76
2023-05-10T12:51:48.914Z,26.59
2023-05-10T12:54:18.565Z,26.65
2023-05-10T12:56:47.009Z,26.76
2023-05-10T12:59:15.387Z,26.95
2023-05-10T13:01:43.830Z,26.66
2023-05-10T13:04:12.370Z,26.57
2023-05-10T13:06:40.698Z,26.98
2023-05-10T13:09:09.072Z,26.50
2023-05-10T13:11:38.863Z,26.70
2023-05-10T13:14:07.149Z,26.86
2023-05-10T13:16:35.728Z,26.94
2023-05-10T13:19:04.140Z,26.52
2023-05-10T13:21:32.398Z,25.75
2023-05-10T13:24:01.192Z,25.50
2023-05-10T13:26:29.748Z,25.79
2023-05-10T13:28:59.648Z,26.11
2023-05-10T13:31:28.085Z,25.82
2023-05-10T13:33:56.502Z,25.61
2023-05-10T13:36:25.210Z,25.96
2023-05-10T13:38:53.417Z,25.20
2023-05-10T13:41:21.898Z,24.84
2023-05-10T13:43:50.542Z,24.89
2023-05-10T13:46:20.465Z,25.14
2023-05-10T13:48:48.808Z,24.64
2023-05-10T13:51:17.061Z,24.94
2023-05-10T13:53:45.348Z,25.54
2023-05-10T13:56:13.808Z,24.89
2023-05-10T13:58:42.910Z,24.51
2023-05-10T14:01:11.198Z,25.07
2023-05-10T14:03:41.067Z,25.34
2023-05-10T14:06:10.355Z,25.01
2023-05-10T14:08:38.667Z,24.33
2023-05-10T14:11:07.341Z,24.38
2023-05-10T14:13:36.000Z,24.67
2023-05-10T14:16:04.229Z,24.78
2023-05-10T14:18:32.641Z,24.61
2023-05-10T14:21:02.726Z,24.56
2023-05-10T14:23:31.411Z,24.46
2023-05-10T14:25:59.619Z,24.26
2023-05-10T14:28:27.992Z,24.22
2023-05-10T14:30:56.455Z,24.62
2023-05-10T14:33:24.929Z,24.04
2023-05-10T14:35:53.265Z,24.52
2023-05-10T14:38:22.953Z,24.60
2023-05-10T14:40:51.282Z,25.59
2023-05-10T14:43:19.496Z,24.82
2023-05-10T14:45:48.625Z,25.52
2023-05-10T14:48:18.482Z,25.45
2023-05-10T14:50:47.836Z,25.03
2023-05-10T14:53:16.123Z,25.57
2023-05-10T14:55:45.820Z,25.82
2023-05-10T14:58:14.008Z,25.46
2023-05-10T15:00:43.020Z,25.22
2023-05-10T15:03:13.108Z,25.57
2023-05-10T15:05:42.175Z,25.28
2023-05-10T15:08:10.806Z,25.10
2023-05-10T15:10:39.595Z,25.20
2023-05-10T15:13:09.148Z,24.67
2023-05-10T15:15:37.430Z,24.75
2023-05-10T15:18:06.707Z,24.64
2023-05-10T15:20:35.029Z,24.55
2023-05-10T15:23:03.721Z,25.21
2023-05-10T15:25:32.216Z,24.97
2023-05-10T15:28:00.553Z,25.05
2023-05-10T15:30:30.746Z,25.57
2023-05-10T15:32:59.196Z,25.99
2023-05-10T15:35:28.253Z,27.17
2023-05-10T15:37:56.623Z,28.40
2023-05-10T15:40:24.911Z,29.13
2023-05-10T15:42:53.204Z,29.35
2023-05-10T15:45:22.170Z,29.73
2023-05-10T15:47:52.477Z,30.62
2023-05-10T15:50:20.815Z,31.06
2023-05-10T15:52:49.600Z,31.66
2023-05-10T15:55:18.521Z,32.12
2023-05-10T15:57:48.889Z,32.43
2023-05-10T16:00:18.035Z,32.62
2023-05-10T16:02:46.518Z,32.04
2023-05-10T16:05:17.135Z,32.65
2023-05-10T16:07:45.675Z,32.75
2023-05-10T16:10:14.019Z,32.67
2023-05-10T16:12:42.517Z,32.68
2023-05-10T16:15:11.558Z,32.78
2023-05-10T16:17:39.962Z,33.28
2023-05-10T16:20:09.570Z,33.12
2023-05-10T16:22:39.433Z,33.46
2023-05-10T16:25:08.486Z,33.37
2023-05-10T16:27:37.398Z,33.31
2023-05-10T16:30:06.815Z,33.37
2023-05-10T16:32:35.191Z,33.49
2023-05-10T16:35:03.590Z,34.35
2023-05-10T16:37:33.096Z,34.37
2023-05-10T16:40:03.150Z,34.22
2023-05-10T16:42:32.378Z,34.63
2023-05-10T16:45:07.274Z,34.82
2023-05-10T16:47:36.001Z,34.96
2023-05-10T16:50:05.085Z,35.40
2023-05-10T16:52:34.412Z,35.66
2023-05-10T16:55:05.278Z,35.50
2023-05-10T16:57:35.340Z,36.10
2023-05-10T17:00:04.446Z,36.53
2023-05-10T17:02:36.684Z,36.38
2023-05-10T17:05:05.674Z,36.86
2023-05-10T17:07:33.947Z,37.38
2023-05-10T17:10:03.752Z,37.80
2023-05-10T17:12:33.067Z,37.84
2023-05-10T17:15:01.433Z,38.22
2023-05-10T17:17:29.931Z,38.22
2023-05-10T17:19:58.676Z,38.42
2023-05-10T17:22:26.949Z,38.74
2023-05-10T17:24:55.262Z,38.36
2023-05-10T17:27:24.849Z,38.67
2023-05-10T17:29:57.507Z,38.69
2023-05-10T17:32:26.498Z,38.83
2023-05-10T17:34:54.829Z,39.17
2023-05-10T17:37:23.160Z,39.56
2023-05-10T17:39:51.596Z,39.35
2023-05-10T17:42:20.862Z,40.02
2023-05-10T17:44:50.507Z,40.03
2023-05-10T17:47:18.974Z,40.76
2023-05-10T17:49:47.158Z,40.82
2023-05-10T17:52:15.517Z,40.80
2023-05-10T17:54:43.727Z,41.34
2023-05-10T17:57:11.970Z,42.04
2023-05-10T17:59:40.241Z,43.24
2023-05-10T18:02:10.369Z,43.38
2023-05-10T18:04:40.981Z,43.92
2023-05-10T18:07:10.945Z,44.07
2023-05-10T18:09:39.456Z,44.13
2023-05-10T18:12:08.571Z,43.91
2023-05-10T18:14:41.034Z,44.47
2023-05-10T18:17:11.872Z,44.23
2023-05-10T18:19:41.058Z,43.78
2023-05-10T18:22:10.912Z,43.64
2023-05-10T18:24:41.228Z,43.75
2023-05-10T18:27:12.766Z,44.59
2023-05-10T18:29:42.384Z,45.10
2023-05-10T18:32:12.308Z,45.41
2023-05-10T18:34:41.075Z,45.84
2023-05-10T18:37:10.333Z,46.31
2023-05-10T18:39:39.883Z,46.63
2023-05-10T18:42:11.122Z,47.23
2023-05-10T18:44:39.460Z,47.45
2023-05-10T18:47:07.692Z,47.39
2023-05-10T18:49:37.463Z,47.13
2023-05-10T18:52:05.714Z,47.38
2023-05-10T18:54:34.005Z,47.70
2023-05-10T18:57:02.335Z,48.07
2023-05-10T18:59:30.681Z,48.17
2023-05-10T19:01:58.978Z,48.36
2023-05-10T19:04:27.421Z,48.41
2023-05-10T19:06:57.123Z,48.11
2023-05-10T19:09:25.456Z,48.79
2023-05-10T19:11:53.686Z,49.18
2023-05-10T19:14:22.501Z,49.40
2023-05-10T19:16:51.974Z,49.98
2023-05-10T19:19:20.648Z,50.33
2023-05-10T19:21:48.943Z,50.39
2023-05-10T19:24:19.743Z,51.20
2023-05-10T19:26:48.680Z,50.85
2023-05-10T19:29:17.149Z,51.00
2023-05-10T19:31:46.488Z,50.87
2023-05-10T19:34:14.861Z,51.11
2023-05-10T19:36:43.105Z,51.51
2023-05-10T19:39:11.691Z,51.80
2023-05-10T19:41:41.489Z,52.73
2023-05-10T19:44:09.806Z,53.23
2023-05-10T19:46:38.111Z,53.60
2023-05-10T19:49:06.416Z,54.11
2023-05-10T19:51:34.822Z,53.86
2023-05-10T19:54:03.030Z,54.30
2023-05-10T19:56:31.304Z,54.71
2023-05-10T19:59:03.065Z,55.36
2023-05-10T20:01:32.890Z,55.78
2023-05-10T20:04:01.387Z,56.12
2023-05-10T20:06:29.895Z,56.14
2023-05-10T20:08:58.284Z,56.10
2023-05-10T20:11:26.558Z,55.89
2023-05-10T20:13:54.735Z,56.15
2023-05-10T20:16:26.614Z,57.01
2023-05-10T20:18:55.533Z,57.31
2023-05-10T20:21:24.025Z,58.08
2023-05-10T20:23:52.445Z,60.43
2023-05-10T20:26:21.699Z,61.69
2023-05-10T20:28:50.950Z,64.04
2023-05-10T20:31:19.194Z,65.26
2023-05-10T20:33:48.923Z,66.79
2023-05-10T20:36:17.227Z,68.17
2023-05-10T20:38:45.515Z,67.13
2023-05-10T20:41:13.818Z,67.25
2023-05-10T20:43:42.340Z,67.56
2023-05-10T20:46:10.757Z,66.49
2023-05-10T20:48:38.970Z,65.38
2023-05-10T20:51:08.648Z,65.02
2023-05-10T20:53:36.880Z,65.27
2023-05-10T20:56:05.219Z,65.80
2023-05-10T20:58:33.502Z,67.92
2023-05-10T21:01:02.328Z,69.08
2023-05-10T21:03:30.600Z,69.99
2023-05-10T21:05:58.881Z,69.34
2023-05-10T21:08:28.629Z,69.01
2023-05-10T21:10:56.975Z,69.08
2023-05-10T21:13:25.344Z,68.66
2023-05-10T21:15:53.601Z,68.79
2023-05-10T21:18:22.144Z,67.92
2023-05-10T21:20:50.772Z,67.43
2023-05-10T21:23:19.118Z,66.79
2023-05-10T21:25:48.832Z,66.81
2023-05-10T21:28:17.103Z,66.62
2023-05-10T21:30:45.383Z,66.46
2023-05-10T21:33:13.871Z,67.04
2023-05-10T21:35:43.052Z,67.74
2023-05-10T21:38:11.936Z,67.64
2023-05-10T21:40:40.899Z,68.65
2023-05-10T21:43:11.342Z,69.60
2023-05-10T21:45:39.908Z,69.95
2023-05-10T21:48:08.236Z,71.07
2023-05-10T21:50:36.790Z,70.71
2023-05-10T21:53:05.378Z,71.11
2023-05-10T21:55:34.654Z,70.91
2023-05-10T21:58:03.097Z,70.99
2023-05-10T22:00:34.157Z,70.30
2023-05-10T22:03:03.272Z,69.81
2023-05-10T22:05:31.731Z,69.50
2023-05-10T22:08:00.043Z,70.14
2023-05-10T22:10:28.324Z,72.25
2023-05-10T22:12:57.309Z,72.13
2023-05-10T22:15:25.551Z,71.88
2023-05-10T22:17:55.352Z,72.44
2023-05-10T22:20:23.730Z,72.30
2023-05-10T22:22:52.069Z,71.73
2023-05-10T22:25:20.551Z,71.54
2023-05-10T22:27:48.857Z,72.09
2023-05-10T22:30:17.616Z,72.92
2023-05-10T22:32:46.594Z,73.82
2023-05-10T22:35:16.233Z,75.16
2023-05-10T22:37:44.412Z,75.67
2023-05-10T22:40:13.916Z,75.65
2023-05-10T22:42:42.168Z,75.31
2023-05-10T22:45:11.595Z,75.02
2023-05-10T22:47:39.869Z,74.72
2023-05-10T22:50:09.747Z,74.90
2023-05-10T22:52:40.031Z,74.47
2023-05-10T22:55:09.017Z,74.88
2023-05-10T22:57:37.579Z,74.98
2023-05-10T23:00:07.360Z,74.81
2023-05-10T23:02:36.037Z,75.14
2023-05-10T23:05:05.391Z,74.63
2023-05-10T23:07:34.022Z,74.83
2023-05-10T23:10:03.804Z,74.69
2023-05-10T23:12:33.967Z,74.56
2023-05-10T23:15:02.298Z,74.95
2023-05-10T23:17:34.044Z,75.07
2023-05-10T23:20:02.364Z,74.55
2023-05-10T23:22:32.268Z,74.46
2023-05-10T23:25:00.712Z,74.21
2023-05-10T23:27:31.491Z,74.49
2023-05-10T23:29:59.788Z,75.38
2023-05-10T23:32:28.136Z,75.29
2023-05-10T23:34:56.532Z,74.92
2023-05-10T23:37:24.776Z,75.08
2023-05-10T23:39:53.276Z,75.31
2023-05-10T23:42:21.733Z,76.68
2023-05-10T23:44:52.141Z,76.55
2023-05-10T23:47:20.640Z,76.48
2023-05-10T23:49:50.682Z,76.63
2023-05-10T23:52:18.955Z,77.94
2023-05-10T23:54:47.407Z,78.45
2023-05-10T23:57:15.815Z,78.73
2023-05-10T23:59:44.041Z,79.00
